createdAt,value
2018-08-29T00:00:39.218Z,49.28
2018-08-29T00:03:09.901Z,49.45
2018-08-29T00:05:39.582Z,49.51
2018-08-29T00:08:14.732Z,50.48
2018-08-29T00:10:44.201Z,49.67
2018-08-29T00:13:13.590Z,50.25
2018-08-29T00:15:55.592Z,50.40
2018-08-29T00:18:25.084Z,51.40
2018-08-29T00:20:55.120Z,51.52
2018-08-29T00:23:25.707Z,51.03
2018-08-29T00:25:55.107Z,51.74
2018-08-29T00:28:31.389Z,51.99
2018-08-29T00:31:01.976Z,52.13
2018-08-29T00:33:46.576Z,51.28
2018-08-29T00:36:16.929Z,51.54
2018-08-29T00:38:46.347Z,51.35
2018-08-29T00:41:15.840Z,51.09
2018-08-29T00:43:45.129Z,51.20
2018-08-29T00:46:15.480Z,51.21
2018-08-29T00:48:45.267Z,50.53
2018-08-29T00:51:14.901Z,50.44
2018-08-29T00:53:44.332Z,50.55
2018-08-29T00:56:14.313Z,50.18
2018-08-29T00:58:46.294Z,50.05
2018-08-29T01:01:17.429Z,50.04
2018-08-29T01:03:47.243Z,50.72
2018-08-29T01:06:16.944Z,50.19
2018-08-29T01:08:46.418Z,50.09
2018-08-29T01:11:16.162Z,50.07
2018-08-29T01:13:45.936Z,50.56
2018-08-29T01:16:15.616Z,49.80
2018-08-29T01:18:45.324Z,49.58
2018-08-29T01:21:15.157Z,50.32
2018-08-29T01:23:44.879Z,49.75
2018-08-29T01:26:14.595Z,50.29
2018-08-29T01:28:44.494Z,50.24
2018-08-29T01:31:14.523Z,49.88
2018-08-29T01:33:44.041Z,49.55
2018-08-29T01:36:13.910Z,49.46
2018-08-29T01:38:51.792Z,50.09
2018-08-29T01:41:22.058Z,49.47
2018-08-29T01:43:51.653Z,49.77
2018-08-29T01:46:21.278Z,49.51
2018-08-29T01:48:50.907Z,49.54
2018-08-29T01:51:20.306Z,49.80
2018-08-29T01:53:49.840Z,49.85
2018-08-29T01:56:19.607Z,49.90
2018-08-29T01:58:49.104Z,50.28
2018-08-29T02:01:19.129Z,50.38
2018-08-29T02:03:48.927Z,50.80
2018-08-29T02:06:18.284Z,51.06
2018-08-29T02:08:47.785Z,51.00
2018-08-29T02:11:17.440Z,50.58
2018-08-29T02:13:46.835Z,50.79
2018-08-29T02:16:16.509Z,51.08
2018-08-29T02:18:46.362Z,51.35
2018-08-29T02:21:16.049Z,51.76
2018-08-29T02:23:45.517Z,50.84
2018-08-29T02:26:15.367Z,51.02
2018-08-29T02:28:45.846Z,50.88
2018-08-29T02:31:16.243Z,51.22
2018-08-29T02:33:45.649Z,50.68
2018-08-29T02:36:15.125Z,51.25
2018-08-29T02:38:44.332Z,50.90
2018-08-29T02:41:14.188Z,51.40
2018-08-29T02:43:43.855Z,51.92
2018-08-29T02:46:13.918Z,51.52
2018-08-29T02:48:43.575Z,50.74
2018-08-29T02:51:13.031Z,52.15
2018-08-29T02:53:42.419Z,51.32
2018-08-29T02:56:12.202Z,51.66
2018-08-29T02:58:41.616Z,51.67
2018-08-29T03:01:11.829Z,51.49
2018-08-29T03:03:45.716Z,51.08
2018-08-29T03:06:15.238Z,50.97
2018-08-29T03:08:44.583Z,51.54
2018-08-29T03:11:14.519Z,51.20
2018-08-29T03:13:43.958Z,52.43
2018-08-29T03:16:16.583Z,52.54
2018-08-29T03:18:46.333Z,52.66
2018-08-29T03:21:15.930Z,52.13
2018-08-29T03:23:45.310Z,52.18
2018-08-29T03:26:15.241Z,51.93
2018-08-29T03:28:46.597Z,52.56
2018-08-29T03:31:19.733Z,52.01
2018-08-29T03:33:49.230Z,51.78
2018-08-29T03:36:18.891Z,52.59
2018-08-29T03:38:48.459Z,51.74
2018-08-29T03:41:18.425Z,51.78
2018-08-29T03:43:47.963Z,52.36
2018-08-29T03:46:29.138Z,52.10
2018-08-29T03:48:58.952Z,53.20
2018-08-29T03:51:30.124Z,52.41
2018-08-29T03:54:00.181Z,52.97
2018-08-29T03:56:52.233Z,52.31
2018-08-29T03:59:21.819Z,52.42
2018-08-29T04:01:53.958Z,52.31
2018-08-29T04:04:24.264Z,52.05
2018-08-29T04:06:53.566Z,53.20
2018-08-29T04:09:24.428Z,52.53
2018-08-29T04:11:53.980Z,53.21
2018-08-29T04:14:23.386Z,53.24
2018-08-29T04:16:54.635Z,53.27
2018-08-29T04:19:24.269Z,52.87
2018-08-29T04:21:54.305Z,52.95
2018-08-29T04:24:23.673Z,53.22
2018-08-29T04:26:54.730Z,53.34
2018-08-29T04:29:24.215Z,54.20
2018-08-29T04:31:55.794Z,54.57
2018-08-29T04:34:29.407Z,54.20
2018-08-29T04:36:59.848Z,54.89
2018-08-29T04:39:29.616Z,54.46
2018-08-29T04:41:59.220Z,54.79
2018-08-29T04:44:29.666Z,54.62
2018-08-29T04:47:01.471Z,53.74
2018-08-29T04:49:31.151Z,53.76
2018-08-29T04:52:02.329Z,54.25
2018-08-29T04:54:40.356Z,54.61
2018-08-29T04:57:12.476Z,54.12
2018-08-29T04:59:43.720Z,54.03
2018-08-29T05:04:49.746Z,54.70
2018-08-29T05:07:20.002Z,54.57
2018-08-29T05:09:50.908Z,54.80
2018-08-29T05:12:25.458Z,54.98
2018-08-29T05:14:55.378Z,54.67
2018-08-29T05:17:25.020Z,54.13
2018-08-29T05:19:55.492Z,54.67
2018-08-29T05:22:25.186Z,55.53
2018-08-29T05:24:56.469Z,54.73
2018-08-29T05:27:26.009Z,54.40
2018-08-29T05:29:55.960Z,54.30
2018-08-29T05:32:34.721Z,54.02
2018-08-29T05:35:04.400Z,52.97
2018-08-29T05:37:34.853Z,53.18
2018-08-29T05:40:06.288Z,52.46
2018-08-29T05:42:37.902Z,52.27
2018-08-29T05:45:09.125Z,52.09
2018-08-29T05:47:39.019Z,51.94
2018-08-29T05:50:10.104Z,51.19
2018-08-29T05:52:41.941Z,51.60
2018-08-29T05:57:51.790Z,51.72
2018-08-29T06:00:24.118Z,51.81
2018-08-29T06:02:54.795Z,51.13
2018-08-29T06:05:26.695Z,50.61
2018-08-29T06:08:02.857Z,48.61
2018-08-29T06:10:35.454Z,48.19
2018-08-29T06:13:09.595Z,48.22
2018-08-29T06:15:42.007Z,47.22
2018-08-29T06:18:21.514Z,45.78
2018-08-29T06:20:53.599Z,44.41
2018-08-29T06:23:25.737Z,44.23
2018-08-29T06:26:11.596Z,44.73
2018-08-29T06:28:42.336Z,44.73
2018-08-29T06:31:14.247Z,43.99
2018-08-29T06:33:49.744Z,42.78
2018-08-29T06:36:25.269Z,44.22
2018-08-29T06:38:54.953Z,44.10
2018-08-29T06:41:26.452Z,45.23
2018-08-29T06:44:01.073Z,44.64
2018-08-29T06:46:34.463Z,43.90
2018-08-29T06:49:05.492Z,42.82
2018-08-29T06:51:39.687Z,42.14
2018-08-29T06:54:13.451Z,40.10
2018-08-29T06:56:46.702Z,39.15
2018-08-29T06:59:21.947Z,37.95
2018-08-29T07:01:56.176Z,37.50
2018-08-29T07:04:27.010Z,37.33
2018-08-29T07:06:58.081Z,38.50
2018-08-29T07:09:27.679Z,38.94
2018-08-29T07:11:57.052Z,38.01
2018-08-29T07:14:26.677Z,38.12
2018-08-29T07:16:58.347Z,37.75
2018-08-29T07:19:37.164Z,38.32
2018-08-29T07:22:11.396Z,36.81
2018-08-29T07:24:42.353Z,36.52
2018-08-29T07:27:14.417Z,36.42
2018-08-29T07:29:45.749Z,36.56
2018-08-29T07:32:17.996Z,35.52
2018-08-29T07:34:49.965Z,35.15
2018-08-29T07:37:20.311Z,35.31
2018-08-29T07:39:54.326Z,34.55
2018-08-29T07:42:25.526Z,33.89
2018-08-29T07:44:59.687Z,33.34
2018-08-29T07:47:33.925Z,32.67
2018-08-29T07:50:14.152Z,32.08
2018-08-29T07:52:45.134Z,33.65
2018-08-29T07:55:14.695Z,32.33
2018-08-29T07:57:46.258Z,32.31
2018-08-29T08:00:18.210Z,33.19
2018-08-29T08:02:49.597Z,32.69
2018-08-29T08:05:20.238Z,32.42
2018-08-29T08:07:51.613Z,30.55
2018-08-29T08:10:29.316Z,31.58
2018-08-29T08:13:09.447Z,30.32
2018-08-29T08:19:05.466Z,29.04
2018-08-29T08:21:41.088Z,29.55
2018-08-29T08:24:10.953Z,30.22
2018-08-29T08:26:42.460Z,28.65
2018-08-29T08:29:25.732Z,29.97
2018-08-29T08:31:59.220Z,30.70
2018-08-29T08:34:36.177Z,29.73
2018-08-29T08:37:08.892Z,29.04
2018-08-29T08:39:41.766Z,29.40
2018-08-29T08:42:11.560Z,29.35
2018-08-29T08:44:43.213Z,29.06
2018-08-29T08:47:16.916Z,28.19
2018-08-29T08:49:49.636Z,29.35
2018-08-29T08:52:19.765Z,29.55
2018-08-29T08:54:55.309Z,28.92
2018-08-29T08:57:26.798Z,28.20
2018-08-29T09:00:06.777Z,28.15
2018-08-29T09:02:39.675Z,27.61
2018-08-29T09:05:12.831Z,26.63
2018-08-29T09:07:48.348Z,26.84
2018-08-29T09:10:19.442Z,27.56
2018-08-29T09:12:50.027Z,27.96
2018-08-29T09:15:21.393Z,27.07
2018-08-29T09:17:52.004Z,27.04
2018-08-29T09:20:41.352Z,27.21
2018-08-29T09:23:12.507Z,26.91
2018-08-29T09:25:51.869Z,27.32
2018-08-29T09:28:24.765Z,27.41
2018-08-29T09:30:56.116Z,26.98
2018-08-29T09:33:27.722Z,25.84
2018-08-29T09:36:11.343Z,26.71
2018-08-29T09:38:41.447Z,25.86
2018-08-29T09:41:12.143Z,25.94
2018-08-29T09:43:43.273Z,26.09
2018-08-29T09:46:17.657Z,25.26
2018-08-29T09:48:47.259Z,25.45
2018-08-29T09:54:13.218Z,25.14
2018-08-29T09:56:53.935Z,24.93
2018-08-29T09:59:25.704Z,25.44
2018-08-29T10:02:00.666Z,25.71
2018-08-29T10:04:32.869Z,25.65
2018-08-29T10:07:16.145Z,25.74
2018-08-29T10:09:50.965Z,25.82
2018-08-29T10:12:22.503Z,26.52
2018-08-29T10:14:56.619Z,26.12
2018-08-29T10:17:28.226Z,26.80
2018-08-29T10:19:59.529Z,26.85
2018-08-29T10:22:34.199Z,27.09
2018-08-29T10:25:15.009Z,27.11
2018-08-29T10:27:46.856Z,27.51
2018-08-29T10:30:24.008Z,26.43
2018-08-29T10:32:58.819Z,26.13
2018-08-29T10:35:36.872Z,26.25
2018-08-29T10:38:14.725Z,26.01
2018-08-29T10:40:44.937Z,25.65
2018-08-29T10:43:16.212Z,26.37
2018-08-29T10:45:50.040Z,25.56
2018-08-29T10:48:21.373Z,24.70
2018-08-29T10:50:54.399Z,24.62
2018-08-29T10:53:33.763Z,24.32
2018-08-29T10:56:06.973Z,24.51
2018-08-29T10:58:39.004Z,24.03
2018-08-29T11:01:13.153Z,24.11
2018-08-29T11:06:23.761Z,22.33
2018-08-29T11:08:55.980Z,22.58
2018-08-29T11:11:27.456Z,22.93
2018-08-29T11:14:00.111Z,22.61
2018-08-29T11:16:32.701Z,23.34
2018-08-29T11:19:04.624Z,23.28
2018-08-29T11:21:40.060Z,22.99
2018-08-29T11:24:20.735Z,22.73
2018-08-29T11:26:52.760Z,23.53
2018-08-29T11:29:26.526Z,23.89
2018-08-29T11:32:07.379Z,24.78
2018-08-29T11:34:38.743Z,24.54
2018-08-29T11:37:11.800Z,25.43
2018-08-29T11:42:41.137Z,25.71
2018-08-29T11:45:16.732Z,25.53
2018-08-29T11:47:48.080Z,25.70
2018-08-29T11:50:25.316Z,26.08
2018-08-29T11:52:55.611Z,26.06
2018-08-29T11:55:30.267Z,26.60
2018-08-29T11:58:09.591Z,26.30
2018-08-29T12:00:46.493Z,26.75
2018-08-29T12:03:23.255Z,26.71
2018-08-29T12:06:03.879Z,26.46
2018-08-29T12:08:56.794Z,26.77
2018-08-29T12:11:30.207Z,26.42
2018-08-29T12:14:00.817Z,26.83
2018-08-29T12:16:36.701Z,26.72
2018-08-29T12:19:12.445Z,26.51
2018-08-29T12:21:56.476Z,26.74
2018-08-29T12:24:27.479Z,27.15
2018-08-29T12:26:59.933Z,26.79
2018-08-29T12:29:34.612Z,27.43
2018-08-29T12:32:11.271Z,28.54
2018-08-29T12:34:43.483Z,28.51
2018-08-29T12:37:15.557Z,28.19
2018-08-29T12:39:55.264Z,28.19
2018-08-29T12:48:29.347Z,28.74
2018-08-29T12:51:05.514Z,28.89
2018-08-29T12:53:36.061Z,29.23
2018-08-29T12:56:09.525Z,29.49
2018-08-29T12:58:44.901Z,30.14
2018-08-29T13:01:26.277Z,31.22
2018-08-29T13:03:57.543Z,31.32
2018-08-29T13:06:29.487Z,31.37
2018-08-29T13:09:00.381Z,31.00
2018-08-29T13:11:31.451Z,30.51
2018-08-29T13:14:04.676Z,30.38
2018-08-29T13:16:34.693Z,30.55
2018-08-29T13:19:04.058Z,30.64
2018-08-29T13:21:41.718Z,29.93
2018-08-29T13:27:39.289Z,30.79
2018-08-29T13:30:17.843Z,30.68
2018-08-29T13:32:55.502Z,30.90
2018-08-29T13:40:53.235Z,31.09
2018-08-29T13:43:33.387Z,32.27
2018-08-29T13:46:04.483Z,31.72
2018-08-29T13:48:35.954Z,32.54
2018-08-29T13:51:08.289Z,32.34
2018-08-29T13:53:38.484Z,33.90
2018-08-29T13:56:11.071Z,34.61
2018-08-29T13:58:42.574Z,35.39
2018-08-29T14:01:13.408Z,36.41
2018-08-29T14:03:43.869Z,36.74
2018-08-29T14:06:16.430Z,37.85
2018-08-29T14:08:47.870Z,37.62
2018-08-29T14:11:33.848Z,38.42
2018-08-29T14:14:16.241Z,39.99
2018-08-29T14:19:24.609Z,41.09
2018-08-29T14:21:55.403Z,41.08
2018-08-29T14:24:27.968Z,41.10
2018-08-29T14:27:05.977Z,41.96
2018-08-29T14:29:35.822Z,42.97
2018-08-29T14:34:41.338Z,44.73
2018-08-29T14:37:15.423Z,44.58
2018-08-29T14:40:17.179Z,44.24
2018-08-29T14:45:58.415Z,44.27
2018-08-29T14:48:30.012Z,44.97
2018-08-29T14:51:00.204Z,46.22
2018-08-29T14:53:39.979Z,46.00
2018-08-29T14:56:18.162Z,45.38
2018-08-29T14:58:48.650Z,45.53
2018-08-29T15:01:30.985Z,45.88
2018-08-29T15:04:28.213Z,47.35
2018-08-29T15:07:04.731Z,47.55
2018-08-29T15:09:38.864Z,47.71
2018-08-29T15:12:11.327Z,46.80
2018-08-29T15:14:41.727Z,48.37
2018-08-29T15:17:13.241Z,48.32
2018-08-29T15:19:43.233Z,47.83
2018-08-29T15:22:16.195Z,48.90
2018-08-29T15:24:47.069Z,48.06
2018-08-29T15:27:27.399Z,47.82
2018-08-29T15:29:58.641Z,47.49
2018-08-29T15:32:36.187Z,47.39
2018-08-29T15:35:07.662Z,48.04
2018-08-29T15:37:39.030Z,49.14
2018-08-29T15:40:11.584Z,49.07
2018-08-29T15:47:42.581Z,47.96
2018-08-29T15:50:14.287Z,48.15
2018-08-29T15:52:44.366Z,49.10
2018-08-29T15:55:16.512Z,48.93
2018-08-29T15:57:46.521Z,49.73
2018-08-29T16:00:20.940Z,50.57
2018-08-29T16:02:54.166Z,50.07
2018-08-29T16:05:27.323Z,50.22
2018-08-29T16:07:59.466Z,49.98
2018-08-29T16:10:30.047Z,49.78
2018-08-29T16:12:59.766Z,49.67
2018-08-29T16:15:31.341Z,50.17
2018-08-29T16:18:16.051Z,50.67
2018-08-29T16:20:48.770Z,52.85
2018-08-29T16:23:21.892Z,51.93
2018-08-29T16:25:55.410Z,55.12
2018-08-29T16:28:25.206Z,55.12
2018-08-29T16:30:55.251Z,54.63
2018-08-29T16:33:27.246Z,55.42
2018-08-29T16:35:57.713Z,58.48
2018-08-29T16:38:29.208Z,59.79
2018-08-29T16:41:03.558Z,61.79
2018-08-29T16:43:32.958Z,60.03
2018-08-29T16:46:04.429Z,59.22
2018-08-29T16:48:34.417Z,60.15
2018-08-29T16:51:04.678Z,60.33
2018-08-29T16:53:34.680Z,59.96
2018-08-29T16:56:11.009Z,61.04
2018-08-29T16:58:46.391Z,60.08
2018-08-29T17:01:16.247Z,59.53
2018-08-29T17:03:50.168Z,60.93
2018-08-29T17:06:22.943Z,61.01
2018-08-29T17:08:52.761Z,61.43
2018-08-29T17:11:23.087Z,61.04
2018-08-29T17:13:52.708Z,63.07
2018-08-29T17:16:26.306Z,62.81
2018-08-29T17:18:57.338Z,63.64
2018-08-29T17:21:27.483Z,63.43
2018-08-29T17:24:00.803Z,63.78
2018-08-29T17:26:36.398Z,62.98
2018-08-29T17:29:08.743Z,63.59
2018-08-29T17:31:43.272Z,63.11
2018-08-29T17:34:15.389Z,62.41
2018-08-29T17:36:53.509Z,62.10
2018-08-29T17:39:23.292Z,61.47
2018-08-29T17:41:53.269Z,61.51
2018-08-29T17:44:27.736Z,62.54
2018-08-29T17:47:14.834Z,63.66
2018-08-29T17:49:49.189Z,63.56
2018-08-29T17:52:22.684Z,62.83
2018-08-29T17:54:56.624Z,62.65
2018-08-29T17:57:28.393Z,62.76
2018-08-29T18:00:15.930Z,62.30
2018-08-29T18:02:46.500Z,61.43
2018-08-29T18:05:19.856Z,62.27
2018-08-29T18:07:55.283Z,62.58
2018-08-29T18:10:28.270Z,62.90
2018-08-29T18:12:58.469Z,61.44
2018-08-29T18:15:36.751Z,62.32
2018-08-29T18:18:11.351Z,62.85
2018-08-29T18:20:47.309Z,62.72
2018-08-29T18:23:19.024Z,62.57
2018-08-29T18:25:51.028Z,62.68
2018-08-29T18:28:20.431Z,62.36
2018-08-29T18:33:23.427Z,62.29
2018-08-29T18:35:58.297Z,62.40
2018-08-29T18:38:30.699Z,62.83
2018-08-29T18:41:07.618Z,63.02
2018-08-29T18:43:43.564Z,64.32
2018-08-29T18:46:17.662Z,66.76
2018-08-29T18:48:55.061Z,66.05
2018-08-29T18:51:27.386Z,68.37
2018-08-29T18:53:57.008Z,68.32
2018-08-29T18:56:27.524Z,68.23
2018-08-29T19:02:02.149Z,68.33
2018-08-29T19:04:35.275Z,67.87
2018-08-29T19:07:06.376Z,67.92
2018-08-29T19:09:54.417Z,67.31
2018-08-29T19:12:26.079Z,66.46
2018-08-29T19:14:56.470Z,66.66
2018-08-29T19:17:29.949Z,65.89
2018-08-29T19:20:01.865Z,66.64
2018-08-29T19:22:40.924Z,66.09
2018-08-29T19:25:12.459Z,67.33
2018-08-29T19:27:43.610Z,66.48
2018-08-29T19:33:36.406Z,68.47
2018-08-29T19:36:09.320Z,68.30
2018-08-29T19:38:39.530Z,67.95
2018-08-29T19:41:11.287Z,67.48
2018-08-29T19:43:48.947Z,67.19
2018-08-29T19:46:22.393Z,67.69
2018-08-29T19:49:13.374Z,68.37
2018-08-29T19:52:06.302Z,69.25
2018-08-29T19:57:54.302Z,69.52
2018-08-29T20:01:12.085Z,69.60
2018-08-29T20:03:45.284Z,69.45
2018-08-29T20:06:16.035Z,69.66
2018-08-29T20:08:51.061Z,68.12
2018-08-29T20:11:22.264Z,67.84
2018-08-29T20:13:54.274Z,68.26
2018-08-29T20:16:31.378Z,69.01
2018-08-29T20:19:03.990Z,69.05
2018-08-29T20:21:34.915Z,68.88
2018-08-29T20:24:10.722Z,68.82
2018-08-29T20:26:51.065Z,67.86
2018-08-29T20:29:20.907Z,68.30
2018-08-29T20:31:52.417Z,67.71
2018-08-29T20:34:29.474Z,68.45
2018-08-29T20:37:02.654Z,69.41
2018-08-29T20:39:33.024Z,70.18
2018-08-29T20:42:18.480Z,69.51
2018-08-29T20:44:50.505Z,69.50
2018-08-29T20:47:24.197Z,68.29
2018-08-29T20:49:54.687Z,68.19
2018-08-29T20:52:26.939Z,68.38
2018-08-29T20:55:04.607Z,67.13
2018-08-29T20:57:37.449Z,67.64
2018-08-29T21:02:46.444Z,67.32
2018-08-29T21:05:16.900Z,67.45
2018-08-29T21:07:46.526Z,67.52
2018-08-29T21:10:18.018Z,68.15
2018-08-29T21:12:55.980Z,67.06
2018-08-29T21:15:33.703Z,67.16
2018-08-29T21:18:07.436Z,66.87
2018-08-29T21:20:38.472Z,66.67
2018-08-29T21:23:09.642Z,66.59
2018-08-29T21:25:40.809Z,67.24
2018-08-29T21:28:25.551Z,66.50
2018-08-29T21:31:06.515Z,66.34
2018-08-29T21:38:10.427Z,66.30
2018-08-29T21:40:41.468Z,67.66
2018-08-29T21:45:26.342Z,68.50
2018-08-29T21:48:37.237Z,68.00
2018-08-29T21:51:17.887Z,68.80
2018-08-29T22:02:58.852Z,68.02
2018-08-29T22:05:29.839Z,71.52
2018-08-29T22:07:59.289Z,71.85
2018-08-29T22:10:31.109Z,71.55
2018-08-29T22:13:01.652Z,71.62
2018-08-29T22:15:32.055Z,71.42
2018-08-29T22:18:01.725Z,72.14
2018-08-29T22:20:32.953Z,72.69
2018-08-29T22:23:04.213Z,72.67
2018-08-29T22:28:21.183Z,73.16
2018-08-29T22:30:52.209Z,73.31
2018-08-29T22:33:23.729Z,72.97
2018-08-29T22:35:53.807Z,73.52
2018-08-29T22:38:24.071Z,73.57
2018-08-29T22:40:55.609Z,73.19
2018-08-29T22:43:26.358Z,72.33
2018-08-29T22:45:58.167Z,73.10
2018-08-29T22:48:29.497Z,73.28
2018-08-29T22:51:00.781Z,72.54
2018-08-29T22:53:31.200Z,73.54
2018-08-29T22:56:02.051Z,72.87
2018-08-29T22:58:31.268Z,73.32
2018-08-29T23:01:00.928Z,73.60
2018-08-29T23:03:30.557Z,73.57
2018-08-29T23:05:59.831Z,74.03
2018-08-29T23:08:30.494Z,73.57
2018-08-29T23:11:02.651Z,73.49
2018-08-29T23:13:33.454Z,74.35
2018-08-29T23:16:03.300Z,74.15
2018-08-29T23:18:32.976Z,74.24
2018-08-29T23:21:02.351Z,73.88
2018-08-29T23:23:32.896Z,73.04
2018-08-29T23:26:04.570Z,74.01
2018-08-29T23:28:34.093Z,73.43
2018-08-29T23:31:03.838Z,74.29
2018-08-29T23:33:35.287Z,73.41
2018-08-29T23:36:04.611Z,74.24
2018-08-29T23:38:36.255Z,73.85
2018-08-29T23:41:06.165Z,74.36
2018-08-29T23:43:37.209Z,74.77
2018-08-29T23:46:08.668Z,74.81
2018-08-29T23:48:39.423Z,73.85
2018-08-29T23:51:09.624Z,73.93
2018-08-29T23:53:39.772Z,73.78
2018-08-29T23:56:10.017Z,74.69
2018-08-29T23:58:39.422Z,74.28
